sensor_id;sensor_type;location;lat;lon;timestamp;P1;durP1;ratioP1;P2;durP2;ratioP2
58466;SDS011;44255;49.244;7.726;2022-07-30T03:32:05;10.65;;;5.97;;
58466;SDS011;44255;49.244;7.726;2022-07-30T03:34:31;6.95;;;6.20;;
58466;SDS011;44255;49.244;7.726;2022-07-30T03:36:59;7.97;;;6.38;;
58466;SDS011;44255;49.244;7.726;2022-07-30T03:39:25;9.68;;;6.00;;
58466;SDS011;44255;49.244;7.726;2022-07-30T03:44:18;7.87;;;6.07;;
58466;SDS011;44255;49.244;7.726;2022-07-30T03:46:44;9.35;;;6.20;;
58466;SDS011;44255;49.244;7.726;2022-07-30T03:49:11;8.60;;;5.82;;
58466;SDS011;44255;49.244;7.726;2022-07-30T03:51:37;8.10;;;6.15;;
58466;SDS011;44255;49.244;7.726;2022-07-30T03:54:03;6.95;;;5.50;;
58466;SDS011;44255;49.244;7.726;2022-07-30T03:56:33;7.68;;;6.07;;
58466;SDS011;44255;49.244;7.726;2022-07-30T03:58:59;6.90;;;6.07;;
58466;SDS011;44255;49.244;7.726;2022-07-30T04:01:25;8.13;;;5.82;;
58466;SDS011;44255;49.244;7.726;2022-07-30T04:03:51;6.60;;;5.85;;
58466;SDS011;44255;49.244;7.726;2022-07-30T04:06:16;7.53;;;5.80;;
58466;SDS011;44255;49.244;7.726;2022-07-30T04:08:41;7.80;;;5.77;;
58466;SDS011;44255;49.244;7.726;2022-07-30T04:11:07;8.47;;;5.60;;
58466;SDS011;44255;49.244;7.726;2022-07-30T04:13:32;13.73;;;5.57;;
58466;SDS011;44255;49.244;7.726;2022-07-30T04:16:00;8.20;;;6.20;;
58466;SDS011;44255;49.244;7.726;2022-07-30T04:18:30;9.05;;;5.80;;
58466;SDS011;44255;49.244;7.726;2022-07-30T04:21:02;6.85;;;5.72;;
58466;SDS011;44255;49.244;7.726;2022-07-30T04:23:31;7.18;;;5.80;;
58466;SDS011;44255;49.244;7.726;2022-07-30T04:25:57;8.73;;;5.47;;
58466;SDS011;44255;49.244;7.726;2022-07-30T04:28:25;9.52;;;6.18;;
58466;SDS011;44255;49.244;7.726;2022-07-30T04:30:51;7.38;;;5.88;;
58466;SDS011;44255;49.244;7.726;2022-07-30T04:33:16;7.03;;;5.83;;
58466;SDS011;44255;49.244;7.726;2022-07-30T04:35:41;7.83;;;6.27;;
58466;SDS011;44255;49.244;7.726;2022-07-30T04:38:07;6.80;;;6.03;;
58466;SDS011;44255;49.244;7.726;2022-07-30T04:40:34;9.20;;;6.70;;
58466;SDS011;44255;49.244;7.726;2022-07-30T04:42:59;7.90;;;5.70;;
58466;SDS011;44255;49.244;7.726;2022-07-30T04:45:25;7.40;;;5.47;;
58466;SDS011;44255;49.244;7.726;2022-07-30T04:47:50;7.73;;;6.43;;
58466;SDS011;44255;49.244;7.726;2022-07-30T04:50:18;8.60;;;5.60;;
58466;SDS011;44255;49.244;7.726;2022-07-30T04:52:47;7.28;;;5.20;;
58466;SDS011;44255;49.244;7.726;2022-07-30T04:55:12;6.57;;;5.60;;
58466;SDS011;44255;49.244;7.726;2022-07-30T05:00:04;7.53;;;5.82;;
58466;SDS011;44255;49.244;7.726;2022-07-30T05:04:57;7.07;;;5.55;;
58466;SDS011;44255;49.244;7.726;2022-07-30T05:07:23;8.20;;;5.55;;
58466;SDS011;44255;49.244;7.726;2022-07-30T05:09:49;8.18;;;5.78;;
58466;SDS011;44255;49.244;7.726;2022-07-30T05:12:15;12.07;;;5.97;;
58466;SDS011;44255;49.244;7.726;2022-07-30T05:14:40;7.63;;;5.70;;
58466;SDS011;44255;49.244;7.726;2022-07-30T05:17:06;6.63;;;5.70;;
58466;SDS011;44255;49.244;7.726;2022-07-30T05:19:31;7.78;;;5.70;;
58466;SDS011;44255;49.244;7.726;2022-07-30T05:21:57;6.57;;;5.80;;
58466;SDS011;44255;49.244;7.726;2022-07-30T05:24:23;7.70;;;5.45;;
58466;SDS011;44255;49.244;7.726;2022-07-30T05:26:49;10.73;;;5.77;;
58466;SDS011;44255;49.244;7.726;2022-07-30T05:29:14;7.23;;;5.53;;
58466;SDS011;44255;49.244;7.726;2022-07-30T05:31:40;7.73;;;5.60;;
58466;SDS011;44255;49.244;7.726;2022-07-30T05:34:05;6.97;;;5.13;;
58466;SDS011;44255;49.244;7.726;2022-07-30T05:36:30;7.50;;;5.30;;
58466;SDS011;44255;49.244;7.726;2022-07-30T05:38:56;8.30;;;5.95;;
58466;SDS011;44255;49.244;7.726;2022-07-30T05:41:22;10.47;;;5.33;;
58466;SDS011;44255;49.244;7.726;2022-07-30T05:43:47;8.07;;;5.00;;
58466;SDS011;44255;49.244;7.726;2022-07-30T05:46:12;8.27;;;5.27;;
58466;SDS011;44255;49.244;7.726;2022-07-30T05:48:38;9.63;;;6.20;;
58466;SDS011;44255;49.244;7.726;2022-07-30T05:51:04;8.27;;;5.90;;
58466;SDS011;44255;49.244;7.726;2022-07-30T05:53:30;7.38;;;5.00;;
58466;SDS011;44255;49.244;7.726;2022-07-30T05:55:55;6.72;;;5.22;;
58466;SDS011;44255;49.244;7.726;2022-07-30T05:58:21;6.60;;;5.15;;
58466;SDS011;44255;49.244;7.726;2022-07-30T06:00:46;8.63;;;5.50;;
58466;SDS011;44255;49.244;7.726;2022-07-30T06:03:12;9.80;;;5.50;;
58466;SDS011;44255;49.244;7.726;2022-07-30T06:05:37;8.07;;;4.73;;
58466;SDS011;44255;49.244;7.726;2022-07-30T06:08:03;7.73;;;4.83;;
58466;SDS011;44255;49.244;7.726;2022-07-30T06:10:28;6.90;;;4.47;;
58466;SDS011;44255;49.244;7.726;2022-07-30T06:12:54;6.72;;;4.80;;
58466;SDS011;44255;49.244;7.726;2022-07-30T06:15:20;6.73;;;4.97;;
58466;SDS011;44255;49.244;7.726;2022-07-30T06:17:45;5.80;;;4.77;;
58466;SDS011;44255;49.244;7.726;2022-07-30T06:22:37;5.50;;;4.75;;
58466;SDS011;44255;49.244;7.726;2022-07-30T06:25:03;6.13;;;4.63;;
58466;SDS011;44255;49.244;7.726;2022-07-30T06:27:29;7.40;;;4.75;;
58466;SDS011;44255;49.244;7.726;2022-07-30T06:29:54;7.37;;;4.50;;
58466;SDS011;44255;49.244;7.726;2022-07-30T06:32:20;7.37;;;4.40;;
58466;SDS011;44255;49.244;7.726;2022-07-30T06:34:45;9.33;;;4.93;;
58466;SDS011;44255;49.244;7.726;2022-07-30T06:37:10;5.10;;;4.60;;
58466;SDS011;44255;49.244;7.726;2022-07-30T06:39:35;7.73;;;4.67;;
58466;SDS011;44255;49.244;7.726;2022-07-30T06:42:01;5.90;;;4.37;;
58466;SDS011;44255;49.244;7.726;2022-07-30T06:44:26;5.93;;;4.10;;
58466;SDS011;44255;49.244;7.726;2022-07-30T06:46:51;6.30;;;4.03;;
58466;SDS011;44255;49.244;7.726;2022-07-30T06:49:16;5.97;;;4.20;;
58466;SDS011;44255;49.244;7.726;2022-07-30T06:51:42;4.87;;;4.20;;
58466;SDS011;44255;49.244;7.726;2022-07-30T06:54:07;5.07;;;3.77;;
58466;SDS011;44255;49.244;7.726;2022-07-30T06:56:32;6.47;;;4.40;;
58466;SDS011;44255;49.244;7.726;2022-07-30T06:58:58;5.57;;;4.07;;
58466;SDS011;44255;49.244;7.726;2022-07-30T07:01:23;8.60;;;4.33;;
58466;SDS011;44255;49.244;7.726;2022-07-30T07:03:48;6.60;;;4.50;;
58466;SDS011;44255;49.244;7.726;2022-07-30T07:06:14;7.03;;;4.33;;
58466;SDS011;44255;49.244;7.726;2022-07-30T07:08:40;6.30;;;4.00;;
58466;SDS011;44255;49.244;7.726;2022-07-30T07:11:05;6.23;;;4.33;;
58466;SDS011;44255;49.244;7.726;2022-07-30T07:13:30;5.97;;;4.23;;
58466;SDS011;44255;49.244;7.726;2022-07-30T07:15:56;4.57;;;3.95;;
58466;SDS011;44255;49.244;7.726;2022-07-30T07:18:21;6.55;;;4.10;;
58466;SDS011;44255;49.244;7.726;2022-07-30T07:20:47;8.17;;;4.30;;
58466;SDS011;44255;49.244;7.726;2022-07-30T07:23:12;9.23;;;4.17;;
58466;SDS011;44255;49.244;7.726;2022-07-30T07:25:38;6.80;;;4.27;;
58466;SDS011;44255;49.244;7.726;2022-07-30T07:28:04;7.00;;;4.30;;
58466;SDS011;44255;49.244;7.726;2022-07-30T07:30:30;6.25;;;4.40;;
58466;SDS011;44255;49.244;7.726;2022-07-30T07:32:55;7.27;;;4.77;;
58466;SDS011;44255;49.244;7.726;2022-07-30T07:35:20;9.27;;;4.57;;
58466;SDS011;44255;49.244;7.726;2022-07-30T07:37:46;10.07;;;4.87;;
58466;SDS011;44255;49.244;7.726;2022-07-30T07:40:11;9.13;;;4.93;;
58466;SDS011;44255;49.244;7.726;2022-07-30T07:42:37;9.95;;;4.45;;
58466;SDS011;44255;49.244;7.726;2022-07-30T07:45:02;6.87;;;4.43;;
58466;SDS011;44255;49.244;7.726;2022-07-30T07:47:28;10.13;;;5.80;;
58466;SDS011;44255;49.244;7.726;2022-07-30T07:49:53;10.13;;;5.37;;
58466;SDS011;44255;49.244;7.726;2022-07-30T07:52:20;7.57;;;4.88;;
58466;SDS011;44255;49.244;7.726;2022-07-30T07:54:45;9.77;;;5.33;;
58466;SDS011;44255;49.244;7.726;2022-07-30T07:57:10;10.50;;;5.13;;
58466;SDS011;44255;49.244;7.726;2022-07-30T07:59:36;9.60;;;4.77;;
58466;SDS011;44255;49.244;7.726;2022-07-30T08:02:01;9.88;;;5.57;;
58466;SDS011;44255;49.244;7.726;2022-07-30T08:04:26;12.38;;;4.95;;
58466;SDS011;44255;49.244;7.726;2022-07-30T08:06:52;7.90;;;4.37;;
58466;SDS011;44255;49.244;7.726;2022-07-30T08:09:17;7.47;;;4.40;;
58466;SDS011;44255;49.244;7.726;2022-07-30T08:11:42;12.13;;;5.00;;
58466;SDS011;44255;49.244;7.726;2022-07-30T08:14:07;12.00;;;5.13;;
58466;SDS011;44255;49.244;7.726;2022-07-30T08:16:33;7.50;;;4.70;;
58466;SDS011;44255;49.244;7.726;2022-07-30T08:18:58;9.67;;;4.90;;
58466;SDS011;44255;49.244;7.726;2022-07-30T08:21:23;9.37;;;5.00;;
58466;SDS011;44255;49.244;7.726;2022-07-30T08:23:49;10.13;;;4.40;;
58466;SDS011;44255;49.244;7.726;2022-07-30T08:26:14;9.32;;;4.43;;
58466;SDS011;44255;49.244;7.726;2022-07-30T08:28:40;7.77;;;3.63;;
58466;SDS011;44255;49.244;7.726;2022-07-30T08:31:07;10.27;;;4.07;;
58466;SDS011;44255;49.244;7.726;2022-07-30T08:33:32;5.88;;;3.17;;
58466;SDS011;44255;49.244;7.726;2022-07-30T08:35:57;7.07;;;3.00;;
58466;SDS011;44255;49.244;7.726;2022-07-30T08:38:23;5.83;;;3.07;;
58466;SDS011;44255;49.244;7.726;2022-07-30T08:40:48;10.97;;;3.43;;
58466;SDS011;44255;49.244;7.726;2022-07-30T08:43:13;7.77;;;3.23;;
58466;SDS011;44255;49.244;7.726;2022-07-30T08:45:39;8.38;;;3.50;;
58466;SDS011;44255;49.244;7.726;2022-07-30T08:48:07;11.80;;;3.17;;
58466;SDS011;44255;49.244;7.726;2022-07-30T08:50:35;6.95;;;2.90;;
58466;SDS011;44255;49.244;7.726;2022-07-30T08:53:00;7.60;;;2.10;;
58466;SDS011;44255;49.244;7.726;2022-07-30T08:55:26;5.90;;;2.63;;
58466;SDS011;44255;49.244;7.726;2022-07-30T08:57:52;4.95;;;2.40;;
58466;SDS011;44255;49.244;7.726;2022-07-30T09:00:19;6.18;;;2.33;;
58466;SDS011;44255;49.244;7.726;2022-07-30T09:02:45;5.05;;;2.30;;
58466;SDS011;44255;49.244;7.726;2022-07-30T09:07:37;3.85;;;2.17;;
58466;SDS011;44255;49.244;7.726;2022-07-30T09:15:05;8.43;;;3.30;;
58466;SDS011;44255;49.244;7.726;2022-07-30T09:17:44;5.65;;;2.33;;
58466;SDS011;44255;49.244;7.726;2022-07-30T09:20:23;8.73;;;2.92;;
58466;SDS011;44255;49.244;7.726;2022-07-30T09:22:54;5.97;;;2.90;;
58466;SDS011;44255;49.244;7.726;2022-07-30T09:25:41;7.93;;;2.83;;
58466;SDS011;44255;49.244;7.726;2022-07-30T09:28:09;9.40;;;2.75;;
58466;SDS011;44255;49.244;7.726;2022-07-30T09:30:42;6.68;;;2.40;;
58466;SDS011;44255;49.244;7.726;2022-07-30T09:35:37;6.65;;;2.70;;
58466;SDS011;44255;49.244;7.726;2022-07-30T09:38:04;3.92;;;2.50;;
58466;SDS011;44255;49.244;7.726;2022-07-30T09:40:30;6.13;;;2.75;;
58466;SDS011;44255;49.244;7.726;2022-07-30T09:43:06;5.13;;;2.40;;
58466;SDS011;44255;49.244;7.726;2022-07-30T09:45:33;4.57;;;2.20;;
58466;SDS011;44255;49.244;7.726;2022-07-30T09:47:59;4.30;;;2.60;;
58466;SDS011;44255;49.244;7.726;2022-07-30T09:50:25;4.88;;;2.55;;
58466;SDS011;44255;49.244;7.726;2022-07-30T09:52:51;4.22;;;1.90;;
58466;SDS011;44255;49.244;7.726;2022-07-30T09:55:33;3.50;;;2.33;;
58466;SDS011;44255;49.244;7.726;2022-07-30T09:58:01;5.93;;;2.30;;
58466;SDS011;44255;49.244;7.726;2022-07-30T10:00:30;3.58;;;2.40;;
58466;SDS011;44255;49.244;7.726;2022-07-30T10:02:58;7.32;;;2.53;;
58466;SDS011;44255;49.244;7.726;2022-07-30T10:05:27;9.85;;;2.13;;
58466;SDS011;44255;49.244;7.726;2022-07-30T10:07:55;4.72;;;2.33;;
58466;SDS011;44255;49.244;7.726;2022-07-30T10:10:24;4.53;;;2.03;;
58466;SDS011;44255;49.244;7.726;2022-07-30T10:12:56;4.00;;;1.85;;
58466;SDS011;44255;49.244;7.726;2022-07-30T10:15:24;4.70;;;1.73;;
58466;SDS011;44255;49.244;7.726;2022-07-30T10:17:53;2.55;;;1.90;;
58466;SDS011;44255;49.244;7.726;2022-07-30T10:20:19;4.60;;;2.25;;
58466;SDS011;44255;49.244;7.726;2022-07-30T10:22:44;3.17;;;1.60;;
58466;SDS011;44255;49.244;7.726;2022-07-30T10:25:11;5.03;;;1.83;;
58466;SDS011;44255;49.244;7.726;2022-07-30T10:27:36;4.07;;;2.13;;
58466;SDS011;44255;49.244;7.726;2022-07-30T10:30:03;3.25;;;2.08;;
58466;SDS011;44255;49.244;7.726;2022-07-30T10:32:29;7.63;;;1.95;;
58466;SDS011;44255;49.244;7.726;2022-07-30T10:34:56;5.53;;;1.75;;
58466;SDS011;44255;49.244;7.726;2022-07-30T10:39:54;6.30;;;1.80;;
58466;SDS011;44255;49.244;7.726;2022-07-30T10:45:15;3.83;;;1.50;;
58466;SDS011;44255;49.244;7.726;2022-07-30T10:47:43;2.60;;;1.58;;
58466;SDS011;44255;49.244;7.726;2022-07-30T10:50:14;4.55;;;2.05;;
58466;SDS011;44255;49.244;7.726;2022-07-30T10:55:19;6.07;;;1.85;;
58466;SDS011;44255;49.244;7.726;2022-07-30T10:58:00;2.45;;;1.83;;
58466;SDS011;44255;49.244;7.726;2022-07-30T11:00:28;3.92;;;1.90;;
58466;SDS011;44255;49.244;7.726;2022-07-30T11:05:47;3.95;;;1.90;;
58466;SDS011;44255;49.244;7.726;2022-07-30T11:10:52;5.05;;;2.13;;
58466;SDS011;44255;49.244;7.726;2022-07-30T11:13:18;4.83;;;1.50;;
58466;SDS011;44255;49.244;7.726;2022-07-30T11:16:17;3.17;;;1.48;;
58466;SDS011;44255;49.244;7.726;2022-07-30T11:21:31;7.85;;;1.60;;
58466;SDS011;44255;49.244;7.726;2022-07-30T11:23:57;6.95;;;1.90;;
58466;SDS011;44255;49.244;7.726;2022-07-30T11:29:06;4.38;;;1.67;;
58466;SDS011;44255;49.244;7.726;2022-07-30T11:31:35;3.13;;;1.60;;
58466;SDS011;44255;49.244;7.726;2022-07-30T11:34:44;3.92;;;1.52;;
58466;SDS011;44255;49.244;7.726;2022-07-30T11:40:18;2.67;;;1.52;;
58466;SDS011;44255;49.244;7.726;2022-07-30T11:42:24;3.00;;;1.40;;
58466;SDS011;44255;49.244;7.726;2022-07-30T11:44:50;5.57;;;1.50;;
58466;SDS011;44255;49.244;7.726;2022-07-30T11:47:15;5.32;;;1.73;;
58466;SDS011;44255;49.244;7.726;2022-07-30T11:49:42;3.83;;;1.70;;
58466;SDS011;44255;49.244;7.726;2022-07-30T11:52:09;3.45;;;1.80;;
58466;SDS011;44255;49.244;7.726;2022-07-30T11:54:51;4.95;;;1.45;;
58466;SDS011;44255;49.244;7.726;2022-07-30T11:57:18;5.97;;;1.50;;
58466;SDS011;44255;49.244;7.726;2022-07-30T11:59:55;4.13;;;1.50;;
58466;SDS011;44255;49.244;7.726;2022-07-30T12:02:27;3.47;;;1.70;;
58466;SDS011;44255;49.244;7.726;2022-07-30T12:04:53;4.35;;;1.60;;
58466;SDS011;44255;49.244;7.726;2022-07-30T12:07:24;1.88;;;1.45;;
58466;SDS011;44255;49.244;7.726;2022-07-30T12:09:49;3.97;;;1.45;;
58466;SDS011;44255;49.244;7.726;2022-07-30T12:12:22;4.68;;;1.60;;
58466;SDS011;44255;49.244;7.726;2022-07-30T12:14:48;4.35;;;1.50;;
58466;SDS011;44255;49.244;7.726;2022-07-30T12:17:13;3.72;;;1.45;;
58466;SDS011;44255;49.244;7.726;2022-07-30T12:22:10;1.25;;;1.10;;
58466;SDS011;44255;49.244;7.726;2022-07-30T12:27:05;3.58;;;1.20;;
58466;SDS011;44255;49.244;7.726;2022-07-30T12:29:32;4.75;;;1.30;;
58466;SDS011;44255;49.244;7.726;2022-07-30T12:31:58;2.25;;;1.27;;
58466;SDS011;44255;49.244;7.726;2022-07-30T12:34:24;8.70;;;1.48;;
58466;SDS011;44255;49.244;7.726;2022-07-30T12:39:22;3.17;;;1.10;;
58466;SDS011;44255;49.244;7.726;2022-07-30T12:41:50;3.70;;;1.40;;
58466;SDS011;44255;49.244;7.726;2022-07-30T12:47:22;2.55;;;1.17;;
58466;SDS011;44255;49.244;7.726;2022-07-30T12:49:49;5.07;;;1.20;;
58466;SDS011;44255;49.244;7.726;2022-07-30T12:52:28;6.20;;;1.10;;
58466;SDS011;44255;49.244;7.726;2022-07-30T12:54:59;3.97;;;1.25;;
58466;SDS011;44255;49.244;7.726;2022-07-30T12:57:27;2.83;;;1.17;;
58466;SDS011;44255;49.244;7.726;2022-07-30T13:00:03;4.80;;;1.27;;
58466;SDS011;44255;49.244;7.726;2022-07-30T13:02:34;1.27;;;1.00;;
58466;SDS011;44255;49.244;7.726;2022-07-30T13:05:01;1.50;;;1.10;;
58466;SDS011;44255;49.244;7.726;2022-07-30T13:07:26;4.30;;;1.00;;
58466;SDS011;44255;49.244;7.726;2022-07-30T13:10:09;2.58;;;0.80;;
58466;SDS011;44255;49.244;7.726;2022-07-30T13:12:36;3.03;;;0.90;;
58466;SDS011;44255;49.244;7.726;2022-07-30T13:17:28;5.20;;;0.95;;
58466;SDS011;44255;49.244;7.726;2022-07-30T13:22:18;2.43;;;0.73;;
58466;SDS011;44255;49.244;7.726;2022-07-30T13:27:08;3.37;;;0.80;;
58466;SDS011;44255;49.244;7.726;2022-07-30T13:31:59;2.37;;;0.90;;
58466;SDS011;44255;49.244;7.726;2022-07-30T13:36:49;2.27;;;0.50;;
58466;SDS011;44255;49.244;7.726;2022-07-30T13:41:40;2.17;;;0.60;;
58466;SDS011;44255;49.244;7.726;2022-07-30T13:44:06;1.15;;;0.73;;
58466;SDS011;44255;49.244;7.726;2022-07-30T13:46:31;4.05;;;0.93;;
58466;SDS011;44255;49.244;7.726;2022-07-30T13:51:22;0.82;;;0.55;;
58466;SDS011;44255;49.244;7.726;2022-07-30T13:56:13;1.53;;;0.70;;
58466;SDS011;44255;49.244;7.726;2022-07-30T13:58:39;4.30;;;0.80;;
58466;SDS011;44255;49.244;7.726;2022-07-30T14:03:30;2.95;;;0.77;;
58466;SDS011;44255;49.244;7.726;2022-07-30T14:05:56;5.35;;;0.70;;
58466;SDS011;44255;49.244;7.726;2022-07-30T14:10:46;1.30;;;0.77;;
58466;SDS011;44255;49.244;7.726;2022-07-30T14:13:12;1.75;;;0.70;;
58466;SDS011;44255;49.244;7.726;2022-07-30T14:18:02;2.67;;;0.82;;
58466;SDS011;44255;49.244;7.726;2022-07-30T14:20:28;1.95;;;0.70;;
58466;SDS011;44255;49.244;7.726;2022-07-30T14:22:53;3.28;;;0.70;;
58466;SDS011;44255;49.244;7.726;2022-07-30T14:25:18;2.25;;;0.80;;
58466;SDS011;44255;49.244;7.726;2022-07-30T14:27:44;1.35;;;0.60;;
58466;SDS011;44255;49.244;7.726;2022-07-30T14:32:36;2.78;;;0.63;;
58466;SDS011;44255;49.244;7.726;2022-07-30T14:35:02;2.67;;;0.47;;
58466;SDS011;44255;49.244;7.726;2022-07-30T14:37:28;1.48;;;0.60;;
58466;SDS011;44255;49.244;7.726;2022-07-30T14:39:54;2.08;;;0.73;;
58466;SDS011;44255;49.244;7.726;2022-07-30T14:42:19;1.48;;;0.60;;
58466;SDS011;44255;49.244;7.726;2022-07-30T14:47:10;1.13;;;0.60;;
58466;SDS011;44255;49.244;7.726;2022-07-30T14:49:37;1.05;;;0.63;;
58466;SDS011;44255;49.244;7.726;2022-07-30T14:52:02;1.30;;;0.60;;
58466;SDS011;44255;49.244;7.726;2022-07-30T14:54:28;2.92;;;0.60;;
58466;SDS011;44255;49.244;7.726;2022-07-30T14:56:55;2.60;;;0.50;;
58466;SDS011;44255;49.244;7.726;2022-07-30T14:59:20;1.05;;;0.63;;
58466;SDS011;44255;49.244;7.726;2022-07-30T15:01:45;2.80;;;0.73;;
58466;SDS011;44255;49.244;7.726;2022-07-30T15:04:12;2.33;;;0.75;;
58466;SDS011;44255;49.244;7.726;2022-07-30T15:06:37;1.10;;;0.50;;
58466;SDS011;44255;49.244;7.726;2022-07-30T15:09:05;2.63;;;0.65;;
58466;SDS011;44255;49.244;7.726;2022-07-30T15:11:30;2.50;;;0.60;;
58466;SDS011;44255;49.244;7.726;2022-07-30T15:13:56;1.85;;;0.57;;
58466;SDS011;44255;49.244;7.726;2022-07-30T15:16:21;2.40;;;0.60;;
58466;SDS011;44255;49.244;7.726;2022-07-30T15:18:46;2.77;;;0.60;;
58466;SDS011;44255;49.244;7.726;2022-07-30T15:21:12;1.42;;;0.60;;
58466;SDS011;44255;49.244;7.726;2022-07-30T15:23:38;0.95;;;0.60;;
58466;SDS011;44255;49.244;7.726;2022-07-30T15:26:03;1.33;;;0.70;;
58466;SDS011;44255;49.244;7.726;2022-07-30T15:28:29;3.92;;;0.60;;
58466;SDS011;44255;49.244;7.726;2022-07-30T15:30:54;2.35;;;0.80;;
58466;SDS011;44255;49.244;7.726;2022-07-30T15:33:20;2.17;;;0.80;;
58466;SDS011;44255;49.244;7.726;2022-07-30T15:35:45;2.83;;;0.77;;
58466;SDS011;44255;49.244;7.726;2022-07-30T15:38:11;1.58;;;0.90;;
58466;SDS011;44255;49.244;7.726;2022-07-30T15:40:36;1.48;;;0.68;;
58466;SDS011;44255;49.244;7.726;2022-07-30T15:43:02;0.90;;;0.63;;
58466;SDS011;44255;49.244;7.726;2022-07-30T15:45:27;2.47;;;0.90;;
58466;SDS011;44255;49.244;7.726;2022-07-30T15:47:52;1.17;;;0.70;;
58466;SDS011;44255;49.244;7.726;2022-07-30T15:50:18;0.73;;;0.60;;
58466;SDS011;44255;49.244;7.726;2022-07-30T15:52:43;1.20;;;0.70;;
58466;SDS011;44255;49.244;7.726;2022-07-30T15:55:09;0.70;;;0.60;;
58466;SDS011;44255;49.244;7.726;2022-07-30T15:57:34;1.83;;;0.60;;
58466;SDS011;44255;49.244;7.726;2022-07-30T16:00:00;3.35;;;0.50;;
58466;SDS011;44255;49.244;7.726;2022-07-30T16:02:26;2.00;;;0.85;;
58466;SDS011;44255;49.244;7.726;2022-07-30T16:04:51;1.95;;;0.73;;
58466;SDS011;44255;49.244;7.726;2022-07-30T16:07:17;3.95;;;0.70;;
58466;SDS011;44255;49.244;7.726;2022-07-30T16:09:42;0.80;;;0.70;;
58466;SDS011;44255;49.244;7.726;2022-07-30T16:12:07;1.63;;;0.80;;
58466;SDS011;44255;49.244;7.726;2022-07-30T16:14:33;2.33;;;0.70;;
58466;SDS011;44255;49.244;7.726;2022-07-30T16:16:59;0.80;;;0.60;;
58466;SDS011;44255;49.244;7.726;2022-07-30T16:19:25;1.23;;;0.70;;
58466;SDS011;44255;49.244;7.726;2022-07-30T16:21:50;5.78;;;0.70;;
58466;SDS011;44255;49.244;7.726;2022-07-30T16:24:16;1.30;;;0.85;;
58466;SDS011;44255;49.244;7.726;2022-07-30T16:26:41;2.53;;;0.70;;
58466;SDS011;44255;49.244;7.726;2022-07-30T16:29:07;1.40;;;0.80;;
58466;SDS011;44255;49.244;7.726;2022-07-30T16:31:33;2.47;;;0.80;;
58466;SDS011;44255;49.244;7.726;2022-07-30T16:33:59;1.48;;;0.73;;
58466;SDS011;44255;49.244;7.726;2022-07-30T16:36:25;4.28;;;0.75;;
58466;SDS011;44255;49.244;7.726;2022-07-30T16:38:51;1.50;;;0.68;;
58466;SDS011;44255;49.244;7.726;2022-07-30T16:41:16;1.67;;;0.73;;
58466;SDS011;44255;49.244;7.726;2022-07-30T16:43:41;0.70;;;0.53;;
58466;SDS011;44255;49.244;7.726;2022-07-30T16:46:06;3.20;;;0.90;;
58466;SDS011;44255;49.244;7.726;2022-07-30T16:48:32;1.85;;;0.65;;
58466;SDS011;44255;49.244;7.726;2022-07-30T16:50:57;1.13;;;0.70;;
58466;SDS011;44255;49.244;7.726;2022-07-30T16:53:24;2.10;;;0.60;;
58466;SDS011;44255;49.244;7.726;2022-07-30T16:55:49;3.50;;;0.82;;
58466;SDS011;44255;49.244;7.726;2022-07-30T16:58:14;2.83;;;0.70;;
58466;SDS011;44255;49.244;7.726;2022-07-30T17:00:40;4.22;;;0.73;;
58466;SDS011;44255;49.244;7.726;2022-07-30T17:03:06;3.00;;;0.70;;
58466;SDS011;44255;49.244;7.726;2022-07-30T17:05:31;2.55;;;0.70;;
58466;SDS011;44255;49.244;7.726;2022-07-30T17:07:57;3.58;;;0.90;;
58466;SDS011;44255;49.244;7.726;2022-07-30T17:10:25;0.80;;;0.68;;
58466;SDS011;44255;49.244;7.726;2022-07-30T17:12:50;0.77;;;0.77;;
58466;SDS011;44255;49.244;7.726;2022-07-30T17:15:15;1.80;;;0.77;;
58466;SDS011;44255;49.244;7.726;2022-07-30T17:17:41;1.15;;;0.65;;
58466;SDS011;44255;49.244;7.726;2022-07-30T17:20:06;2.67;;;0.70;;
58466;SDS011;44255;49.244;7.726;2022-07-30T17:22:33;2.63;;;0.70;;
58466;SDS011;44255;49.244;7.726;2022-07-30T17:25:00;1.52;;;0.60;;
58466;SDS011;44255;49.244;7.726;2022-07-30T17:27:26;2.80;;;0.57;;
58466;SDS011;44255;49.244;7.726;2022-07-30T17:29:52;1.55;;;1.10;;
58466;SDS011;44255;49.244;7.726;2022-07-30T17:32:18;2.55;;;0.60;;
58466;SDS011;44255;49.244;7.726;2022-07-30T17:34:44;4.13;;;1.20;;
58466;SDS011;44255;49.244;7.726;2022-07-30T17:37:11;1.25;;;0.70;;
58466;SDS011;44255;49.244;7.726;2022-07-30T17:39:36;1.23;;;0.63;;
58466;SDS011;44255;49.244;7.726;2022-07-30T17:42:02;1.93;;;0.40;;
58466;SDS011;44255;49.244;7.726;2022-07-30T17:44:27;4.32;;;0.80;;
58466;SDS011;44255;49.244;7.726;2022-07-30T17:46:52;1.13;;;0.70;;
58466;SDS011;44255;49.244;7.726;2022-07-30T17:49:18;1.40;;;0.70;;
58466;SDS011;44255;49.244;7.726;2022-07-30T17:51:43;1.87;;;0.90;;
58466;SDS011;44255;49.244;7.726;2022-07-30T17:54:08;1.83;;;0.73;;
58466;SDS011;44255;49.244;7.726;2022-07-30T17:56:34;2.15;;;0.80;;
58466;SDS011;44255;49.244;7.726;2022-07-30T17:59:01;0.98;;;0.88;;
58466;SDS011;44255;49.244;7.726;2022-07-30T18:01:28;2.45;;;0.70;;
58466;SDS011;44255;49.244;7.726;2022-07-30T18:03:53;1.20;;;0.80;;
58466;SDS011;44255;49.244;7.726;2022-07-30T18:06:18;3.90;;;0.53;;
58466;SDS011;44255;49.244;7.726;2022-07-30T18:08:44;0.83;;;0.53;;
58466;SDS011;44255;49.244;7.726;2022-07-30T18:11:09;2.40;;;0.80;;
58466;SDS011;44255;49.244;7.726;2022-07-30T18:13:34;2.27;;;0.43;;
58466;SDS011;44255;49.244;7.726;2022-07-30T18:16:00;0.68;;;0.63;;
58466;SDS011;44255;49.244;7.726;2022-07-30T18:18:25;1.73;;;1.13;;
58466;SDS011;44255;49.244;7.726;2022-07-30T18:20:51;1.27;;;1.03;;
58466;SDS011;44255;49.244;7.726;2022-07-30T18:23:16;0.90;;;0.60;;
58466;SDS011;44255;49.244;7.726;2022-07-30T18:25:43;1.00;;;0.70;;
58466;SDS011;44255;49.244;7.726;2022-07-30T18:28:08;1.95;;;0.70;;
58466;SDS011;44255;49.244;7.726;2022-07-30T18:30:33;2.70;;;0.67;;
58466;SDS011;44255;49.244;7.726;2022-07-30T18:32:59;2.00;;;0.70;;
58466;SDS011;44255;49.244;7.726;2022-07-30T18:35:24;1.60;;;0.80;;
58466;SDS011;44255;49.244;7.726;2022-07-30T18:37:49;3.20;;;0.80;;
58466;SDS011;44255;49.244;7.726;2022-07-30T18:40:15;1.57;;;0.70;;
58466;SDS011;44255;49.244;7.726;2022-07-30T18:42:43;1.75;;;0.70;;
58466;SDS011;44255;49.244;7.726;2022-07-30T18:47:37;0.80;;;0.60;;
58466;SDS011;44255;49.244;7.726;2022-07-30T18:50:03;0.88;;;0.77;;
58466;SDS011;44255;49.244;7.726;2022-07-30T18:52:29;3.00;;;0.80;;
58466;SDS011;44255;49.244;7.726;2022-07-30T18:54:54;1.50;;;0.80;;
58466;SDS011;44255;49.244;7.726;2022-07-30T18:57:19;3.77;;;0.87;;
58466;SDS011;44255;49.244;7.726;2022-07-30T18:59:44;1.17;;;1.03;;
58466;SDS011;44255;49.244;7.726;2022-07-30T19:02:10;1.20;;;0.87;;
58466;SDS011;44255;49.244;7.726;2022-07-30T19:04:35;0.70;;;0.70;;
58466;SDS011;44255;49.244;7.726;2022-07-30T19:07:00;3.60;;;1.10;;
58466;SDS011;44255;49.244;7.726;2022-07-30T19:09:26;1.13;;;0.83;;
58466;SDS011;44255;49.244;7.726;2022-07-30T19:11:51;2.23;;;0.90;;
58466;SDS011;44255;49.244;7.726;2022-07-30T19:14:17;3.53;;;1.20;;
58466;SDS011;44255;49.244;7.726;2022-07-30T19:16:42;2.25;;;1.73;;
58466;SDS011;44255;49.244;7.726;2022-07-30T19:19:10;2.00;;;1.50;;
58466;SDS011;44255;49.244;7.726;2022-07-30T19:21:37;1.85;;;1.30;;
58466;SDS011;44255;49.244;7.726;2022-07-30T19:24:03;4.80;;;2.65;;
58466;SDS011;44255;49.244;7.726;2022-07-30T19:26:29;5.22;;;1.83;;
58466;SDS011;44255;49.244;7.726;2022-07-30T19:28:54;12.48;;;5.30;;
58466;SDS011;44255;49.244;7.726;2022-07-30T19:31:20;13.23;;;6.03;;
58466;SDS011;44255;49.244;7.726;2022-07-30T19:33:45;5.50;;;3.80;;
58466;SDS011;44255;49.244;7.726;2022-07-30T19:36:10;6.63;;;3.60;;
58466;SDS011;44255;49.244;7.726;2022-07-30T19:38:36;2.50;;;1.27;;
58466;SDS011;44255;49.244;7.726;2022-07-30T19:41:05;3.55;;;1.08;;